sensor_id;sensor_type;location;lat;lon;timestamp;pressure;altitude;pressure_sealevel;temperature
24586;BMP280;12743;52.262;6.172;2023-07-20T00:01:50;100182.84;;;17.30
24586;BMP280;12743;52.262;6.172;2023-07-20T00:04:17;100141.25;;;16.78
24586;BMP280;12743;52.262;6.172;2023-07-20T00:06:44;100165.44;;;17.22
24586;BMP280;12743;52.262;6.172;2023-07-20T00:09:11;100178.28;;;17.38
24586;BMP280;12743;52.262;6.172;2023-07-20T00:11:38;100168.13;;;17.15
24586;BMP280;12743;52.262;6.172;2023-07-20T00:14:05;100151.44;;;17.04
24586;BMP280;12743;52.262;6.172;2023-07-20T00:16:32;100208.19;;;17.52
24586;BMP280;12743;52.262;6.172;2023-07-20T00:18:59;100164.28;;;17.27
24586;BMP280;12743;52.262;6.172;2023-07-20T00:21:25;100139.72;;;17.05
24586;BMP280;12743;52.262;6.172;2023-07-20T00:23:52;100154.06;;;17.22
24586;BMP280;12743;52.262;6.172;2023-07-20T00:26:19;100134.81;;;16.96
24586;BMP280;12743;52.262;6.172;2023-07-20T00:28:50;100138.63;;;16.81
24586;BMP280;12743;52.262;6.172;2023-07-20T00:31:18;100165.47;;;17.15
24586;BMP280;12743;52.262;6.172;2023-07-20T00:33:45;100158.91;;;17.37
24586;BMP280;12743;52.262;6.172;2023-07-20T00:36:12;100158.94;;;17.41
24586;BMP280;12743;52.262;6.172;2023-07-20T00:38:56;100164.34;;;17.16
24586;BMP280;12743;52.262;6.172;2023-07-20T00:41:23;100178.69;;;17.36
24586;BMP280;12743;52.262;6.172;2023-07-20T00:43:50;100228.28;;;17.60
24586;BMP280;12743;52.262;6.172;2023-07-20T00:46:18;100225.19;;;17.72
24586;BMP280;12743;52.262;6.172;2023-07-20T00:48:44;100206.34;;;17.46
24586;BMP280;12743;52.262;6.172;2023-07-20T00:51:11;100194.91;;;17.52
24586;BMP280;12743;52.262;6.172;2023-07-20T00:53:38;100185.88;;;17.29
24586;BMP280;12743;52.262;6.172;2023-07-20T00:56:05;100202.50;;;17.43
24586;BMP280;12743;52.262;6.172;2023-07-20T00:58:31;100203.69;;;17.42
24586;BMP280;12743;52.262;6.172;2023-07-20T01:01:00;100203.59;;;17.63
24586;BMP280;12743;52.262;6.172;2023-07-20T01:03:27;100182.81;;;17.41
24586;BMP280;12743;52.262;6.172;2023-07-20T01:08:51;100173.75;;;17.31
24586;BMP280;12743;52.262;6.172;2023-07-20T01:11:59;100207.03;;;17.53
24586;BMP280;12743;52.262;6.172;2023-07-20T01:14:31;100195.34;;;17.40
24586;BMP280;12743;52.262;6.172;2023-07-20T01:16:58;100156.41;;;17.02
24586;BMP280;12743;52.262;6.172;2023-07-20T01:19:26;100146.56;;;16.92
24586;BMP280;12743;52.262;6.172;2023-07-20T01:33:06;100156.75;;;16.97
24586;BMP280;12743;52.262;6.172;2023-07-20T01:35:35;100134.84;;;16.51
24586;BMP280;12743;52.262;6.172;2023-07-20T01:38:03;100160.59;;;16.89
24586;BMP280;12743;52.262;6.172;2023-07-20T01:40:30;100148.47;;;16.67
24586;BMP280;12743;52.262;6.172;2023-07-20T01:42:57;100161.69;;;16.88
24586;BMP280;12743;52.262;6.172;2023-07-20T01:45:24;100120.84;;;16.36
24586;BMP280;12743;52.262;6.172;2023-07-20T01:47:50;100131.44;;;16.43
24586;BMP280;12743;52.262;6.172;2023-07-20T01:50:17;100159.47;;;16.65
24586;BMP280;12743;52.262;6.172;2023-07-20T01:52:44;100171.56;;;16.84
24586;BMP280;12743;52.262;6.172;2023-07-20T01:55:10;100131.41;;;16.57
24586;BMP280;12743;52.262;6.172;2023-07-20T01:57:37;100158.72;;;16.65
24586;BMP280;12743;52.262;6.172;2023-07-20T02:00:04;100155.28;;;16.68
24586;BMP280;12743;52.262;6.172;2023-07-20T02:02:39;100196.19;;;16.84
24586;BMP280;12743;52.262;6.172;2023-07-20T02:05:07;100187.88;;;16.61
24586;BMP280;12743;52.262;6.172;2023-07-20T02:07:34;100155.69;;;16.56
24586;BMP280;12743;52.262;6.172;2023-07-20T02:10:01;100183.72;;;16.60
24586;BMP280;12743;52.262;6.172;2023-07-20T02:12:27;100200.38;;;16.89
24586;BMP280;12743;52.262;6.172;2023-07-20T02:14:54;100230.31;;;16.93
24586;BMP280;12743;52.262;6.172;2023-07-20T02:17:20;100148.09;;;16.58
24586;BMP280;12743;52.262;6.172;2023-07-20T02:19:50;100153.78;;;16.60
24586;BMP280;12743;52.262;6.172;2023-07-20T02:22:17;100164.03;;;16.61
24586;BMP280;12743;52.262;6.172;2023-07-20T02:24:43;100170.84;;;16.66
24586;BMP280;12743;52.262;6.172;2023-07-20T02:27:10;100160.63;;;16.54
24586;BMP280;12743;52.262;6.172;2023-07-20T02:29:37;100129.16;;;16.31
24586;BMP280;12743;52.262;6.172;2023-07-20T02:32:04;100137.09;;;16.28
24586;BMP280;12743;52.262;6.172;2023-07-20T02:34:30;100128.78;;;16.19
24586;BMP280;12743;52.262;6.172;2023-07-20T02:36:57;100121.56;;;16.01
24586;BMP280;12743;52.262;6.172;2023-07-20T02:39:27;100122.69;;;16.11
24586;BMP280;12743;52.262;6.172;2023-07-20T02:41:54;100145.81;;;16.14
24586;BMP280;12743;52.262;6.172;2023-07-20T02:44:20;100161.38;;;16.40
24586;BMP280;12743;52.262;6.172;2023-07-20T02:46:47;100180.31;;;16.49
24586;BMP280;12743;52.262;6.172;2023-07-20T02:49:15;100181.81;;;16.61
24586;BMP280;12743;52.262;6.172;2023-07-20T02:51:42;100175.75;;;16.50
24586;BMP280;12743;52.262;6.172;2023-07-20T02:54:09;100179.53;;;16.49
24586;BMP280;12743;52.262;6.172;2023-07-20T02:56:36;100195.81;;;16.44
24586;BMP280;12743;52.262;6.172;2023-07-20T02:59:02;100187.47;;;16.42
24586;BMP280;12743;52.262;6.172;2023-07-20T03:01:29;100187.84;;;16.47
24586;BMP280;12743;52.262;6.172;2023-07-20T03:03:56;100168.16;;;16.34
24586;BMP280;12743;52.262;6.172;2023-07-20T03:06:23;100207.94;;;16.52
24586;BMP280;12743;52.262;6.172;2023-07-20T03:08:50;100251.50;;;16.68
24586;BMP280;12743;52.262;6.172;2023-07-20T03:11:20;100187.13;;;16.43
24586;BMP280;12743;52.262;6.172;2023-07-20T03:13:47;100210.22;;;16.46
24586;BMP280;12743;52.262;6.172;2023-07-20T03:16:18;100183.69;;;16.29
24586;BMP280;12743;52.262;6.172;2023-07-20T03:18:46;100199.19;;;16.27
24586;BMP280;12743;52.262;6.172;2023-07-20T03:21:13;100207.94;;;16.45
24586;BMP280;12743;52.262;6.172;2023-07-20T03:23:40;100192.78;;;16.35
24586;BMP280;12743;52.262;6.172;2023-07-20T03:26:07;100169.22;;;16.01
24586;BMP280;12743;52.262;6.172;2023-07-20T03:28:35;100188.91;;;16.11
24586;BMP280;12743;52.262;6.172;2023-07-20T03:31:02;100211.28;;;16.28
24586;BMP280;12743;52.262;6.172;2023-07-20T03:33:32;100191.25;;;16.23
24586;BMP280;12743;52.262;6.172;2023-07-20T03:35:59;100173.44;;;16.09
24586;BMP280;12743;52.262;6.172;2023-07-20T03:38:26;100186.31;;;16.14
24586;BMP280;12743;52.262;6.172;2023-07-20T03:40:58;100191.22;;;16.09
24586;BMP280;12743;52.262;6.172;2023-07-20T03:43:26;100218.88;;;16.26
24586;BMP280;12743;52.262;6.172;2023-07-20T03:45:53;100217.31;;;16.10
24586;BMP280;12743;52.262;6.172;2023-07-20T03:48:24;100192.69;;;15.99
24586;BMP280;12743;52.262;6.172;2023-07-20T03:50:52;100218.47;;;16.09
24586;BMP280;12743;52.262;6.172;2023-07-20T03:53:19;100221.84;;;16.06
24586;BMP280;12743;52.262;6.172;2023-07-20T03:55:47;100241.94;;;16.22
24586;BMP280;12743;52.262;6.172;2023-07-20T03:58:14;100234.00;;;16.14
24586;BMP280;12743;52.262;6.172;2023-07-20T04:00:51;100247.97;;;16.15
24586;BMP280;12743;52.262;6.172;2023-07-20T04:03:19;100259.00;;;16.21
24586;BMP280;12743;52.262;6.172;2023-07-20T04:05:46;100234.38;;;16.09
24586;BMP280;12743;52.262;6.172;2023-07-20T04:08:12;100237.38;;;16.01
24586;BMP280;12743;52.262;6.172;2023-07-20T04:10:42;100232.03;;;16.04
24586;BMP280;12743;52.262;6.172;2023-07-20T04:13:09;100249.09;;;16.03
24586;BMP280;12743;52.262;6.172;2023-07-20T04:15:36;100238.84;;;15.98
24586;BMP280;12743;52.262;6.172;2023-07-20T04:18:02;100270.31;;;16.17
24586;BMP280;12743;52.262;6.172;2023-07-20T04:20:29;100267.66;;;16.03
24586;BMP280;12743;52.262;6.172;2023-07-20T04:22:56;100285.09;;;16.19
24586;BMP280;12743;52.262;6.172;2023-07-20T04:25:23;100249.78;;;15.90
24586;BMP280;12743;52.262;6.172;2023-07-20T04:27:50;100245.59;;;15.85
24586;BMP280;12743;52.262;6.172;2023-07-20T04:30:18;100274.06;;;15.99
24586;BMP280;12743;52.262;6.172;2023-07-20T04:32:49;100281.25;;;16.05
24586;BMP280;12743;52.262;6.172;2023-07-20T04:38:06;100272.19;;;16.03
24586;BMP280;12743;52.262;6.172;2023-07-20T04:40:33;100307.41;;;16.07
24586;BMP280;12743;52.262;6.172;2023-07-20T04:43:00;100289.19;;;16.02
24586;BMP280;12743;52.262;6.172;2023-07-20T04:45:27;100315.63;;;15.95
24586;BMP280;12743;52.262;6.172;2023-07-20T04:47:54;100292.22;;;15.93
24586;BMP280;12743;52.262;6.172;2023-07-20T04:50:21;100313.47;;;16.07
24586;BMP280;12743;52.262;6.172;2023-07-20T04:52:49;100327.41;;;16.01
24586;BMP280;12743;52.262;6.172;2023-07-20T04:55:19;100339.22;;;16.21
24586;BMP280;12743;52.262;6.172;2023-07-20T04:57:46;100361.94;;;16.19
24586;BMP280;12743;52.262;6.172;2023-07-20T05:00:13;100346.81;;;16.19
24586;BMP280;12743;52.262;6.172;2023-07-20T05:02:40;100335.44;;;16.22
24586;BMP280;12743;52.262;6.172;2023-07-20T05:05:07;100335.44;;;16.22
24586;BMP280;12743;52.262;6.172;2023-07-20T05:07:34;100299.34;;;15.86
24586;BMP280;12743;52.262;6.172;2023-07-20T05:10:01;100250.50;;;15.80
24586;BMP280;12743;52.262;6.172;2023-07-20T05:12:28;100284.53;;;15.78
24586;BMP280;12743;52.262;6.172;2023-07-20T05:14:55;100275.13;;;15.84
24586;BMP280;12743;52.262;6.172;2023-07-20T05:17:21;100268.31;;;15.83
24586;BMP280;12743;52.262;6.172;2023-07-20T05:19:48;100285.06;;;16.08
24586;BMP280;12743;52.262;6.172;2023-07-20T05:22:15;100271.38;;;15.92
24586;BMP280;12743;52.262;6.172;2023-07-20T05:24:41;100268.66;;;15.78
24586;BMP280;12743;52.262;6.172;2023-07-20T05:27:08;100244.44;;;15.76
24586;BMP280;12743;52.262;6.172;2023-07-20T05:29:34;100228.22;;;15.95
24586;BMP280;12743;52.262;6.172;2023-07-20T05:32:01;100303.31;;;16.20
24586;BMP280;12743;52.262;6.172;2023-07-20T05:34:29;100344.22;;;16.33
24586;BMP280;12743;52.262;6.172;2023-07-20T05:36:55;100325.63;;;16.26
24586;BMP280;12743;52.262;6.172;2023-07-20T05:39:24;100330.66;;;16.56
24586;BMP280;12743;52.262;6.172;2023-07-20T05:41:50;100357.97;;;16.70
24586;BMP280;12743;52.262;6.172;2023-07-20T05:44:17;100368.53;;;16.53
24586;BMP280;12743;52.262;6.172;2023-07-20T05:46:43;100375.06;;;16.76
24586;BMP280;12743;52.262;6.172;2023-07-20T05:49:22;100384.13;;;16.82
24586;BMP280;12743;52.262;6.172;2023-07-20T05:51:49;100422.84;;;17.05
24586;BMP280;12743;52.262;6.172;2023-07-20T05:54:16;100420.56;;;17.10
24586;BMP280;12743;52.262;6.172;2023-07-20T05:56:42;100391.75;;;16.98
24586;BMP280;12743;52.262;6.172;2023-07-20T05:59:09;100380.75;;;16.89
24586;BMP280;12743;52.262;6.172;2023-07-20T06:01:36;100421.34;;;16.96
24586;BMP280;12743;52.262;6.172;2023-07-20T06:04:03;100453.59;;;17.30
24586;BMP280;12743;52.262;6.172;2023-07-20T06:06:30;100439.56;;;17.44
24586;BMP280;12743;52.262;6.172;2023-07-20T06:08:56;100480.97;;;17.55
24586;BMP280;12743;52.262;6.172;2023-07-20T06:11:23;100465.00;;;17.48
24586;BMP280;12743;52.262;6.172;2023-07-20T06:13:49;100423.97;;;17.00
24586;BMP280;12743;52.262;6.172;2023-07-20T06:16:16;100448.66;;;17.25
24586;BMP280;12743;52.262;6.172;2023-07-20T06:18:43;100456.22;;;17.23
24586;BMP280;12743;52.262;6.172;2023-07-20T06:21:09;100456.66;;;17.67
24586;BMP280;12743;52.262;6.172;2023-07-20T06:23:36;100478.69;;;17.78
24586;BMP280;12743;52.262;6.172;2023-07-20T06:26:03;100527.63;;;17.74
24586;BMP280;12743;52.262;6.172;2023-07-20T06:28:29;100499.53;;;17.55
24586;BMP280;12743;52.262;6.172;2023-07-20T06:31:03;100490.03;;;17.54
24586;BMP280;12743;52.262;6.172;2023-07-20T06:33:30;100527.59;;;17.49
24586;BMP280;12743;52.262;6.172;2023-07-20T06:35:57;100538.22;;;17.60
24586;BMP280;12743;52.262;6.172;2023-07-20T06:38:24;100543.16;;;17.58
24586;BMP280;12743;52.262;6.172;2023-07-20T06:40:54;100563.66;;;17.71
24586;BMP280;12743;52.262;6.172;2023-07-20T06:43:20;100531.81;;;17.85
24586;BMP280;12743;52.262;6.172;2023-07-20T06:45:52;100566.69;;;18.19
24586;BMP280;12743;52.262;6.172;2023-07-20T06:48:22;100610.75;;;18.06
24586;BMP280;12743;52.262;6.172;2023-07-20T06:50:49;100613.03;;;17.86
24586;BMP280;12743;52.262;6.172;2023-07-20T06:53:15;100633.09;;;17.56
24586;BMP280;12743;52.262;6.172;2023-07-20T06:55:44;100611.16;;;18.22
24586;BMP280;12743;52.262;6.172;2023-07-20T06:58:11;100673.78;;;17.84
24586;BMP280;12743;52.262;6.172;2023-07-20T07:00:37;100649.50;;;18.04
24586;BMP280;12743;52.262;6.172;2023-07-20T07:03:04;100677.97;;;17.89
24586;BMP280;12743;52.262;6.172;2023-07-20T07:05:31;100701.19;;;18.38
24586;BMP280;12743;52.262;6.172;2023-07-20T07:08:04;100725.13;;;18.48
24586;BMP280;12743;52.262;6.172;2023-07-20T07:10:31;100726.25;;;18.26
24586;BMP280;12743;52.262;6.172;2023-07-20T07:12:58;100744.13;;;18.47
24586;BMP280;12743;52.262;6.172;2023-07-20T07:15:25;100788.81;;;17.96
24586;BMP280;12743;52.262;6.172;2023-07-20T07:17:52;100764.97;;;18.24
24586;BMP280;12743;52.262;6.172;2023-07-20T07:20:18;100764.25;;;18.51
24586;BMP280;12743;52.262;6.172;2023-07-20T07:22:47;100755.53;;;18.90
24586;BMP280;12743;52.262;6.172;2023-07-20T07:25:19;100774.50;;;18.46
24586;BMP280;12743;52.262;6.172;2023-07-20T07:27:49;100809.88;;;18.92
24586;BMP280;12743;52.262;6.172;2023-07-20T07:30:16;100815.97;;;19.10
24586;BMP280;12743;52.262;6.172;2023-07-20T07:32:43;100803.44;;;19.07
24586;BMP280;12743;52.262;6.172;2023-07-20T07:35:09;100797.72;;;19.12
24586;BMP280;12743;52.262;6.172;2023-07-20T07:37:36;100853.97;;;18.75
24586;BMP280;12743;52.262;6.172;2023-07-20T07:40:23;100857.06;;;18.81
24586;BMP280;12743;52.262;6.172;2023-07-20T07:42:49;100854.00;;;18.86
24586;BMP280;12743;52.262;6.172;2023-07-20T07:45:16;100847.88;;;19.52
24586;BMP280;12743;52.262;6.172;2023-07-20T07:47:43;100865.44;;;19.11
24586;BMP280;12743;52.262;6.172;2023-07-20T07:50:10;100911.44;;;19.26
24586;BMP280;12743;52.262;6.172;2023-07-20T07:52:36;100914.84;;;19.23
24586;BMP280;12743;52.262;6.172;2023-07-20T07:55:04;100922.09;;;19.36
24586;BMP280;12743;52.262;6.172;2023-07-20T07:57:31;100917.56;;;19.44
24586;BMP280;12743;52.262;6.172;2023-07-20T07:59:58;100928.09;;;20.00
24586;BMP280;12743;52.262;6.172;2023-07-20T08:02:24;100950.56;;;19.96
24586;BMP280;12743;52.262;6.172;2023-07-20T08:04:51;100959.00;;;19.48
24586;BMP280;12743;52.262;6.172;2023-07-20T08:07:19;100954.38;;;19.95
24586;BMP280;12743;52.262;6.172;2023-07-20T08:09:45;100946.06;;;19.61
24586;BMP280;12743;52.262;6.172;2023-07-20T08:12:12;100954.31;;;20.16
24586;BMP280;12743;52.262;6.172;2023-07-20T08:14:40;100963.53;;;19.79
24586;BMP280;12743;52.262;6.172;2023-07-20T08:17:06;100963.50;;;20.04
24586;BMP280;12743;52.262;6.172;2023-07-20T08:19:33;100948.34;;;19.76
24586;BMP280;12743;52.262;6.172;2023-07-20T08:22:00;100958.91;;;20.12
24586;BMP280;12743;52.262;6.172;2023-07-20T08:24:27;100962.44;;;19.59
24586;BMP280;12743;52.262;6.172;2023-07-20T08:26:53;100944.91;;;19.06
24586;BMP280;12743;52.262;6.172;2023-07-20T08:29:20;100971.53;;;19.06
24586;BMP280;12743;52.262;6.172;2023-07-20T08:31:46;100977.63;;;19.91
24586;BMP280;12743;52.262;6.172;2023-07-20T08:34:13;100988.47;;;20.52
24586;BMP280;12743;52.262;6.172;2023-07-20T08:36:57;100998.44;;;20.41
24586;BMP280;12743;52.262;6.172;2023-07-20T08:39:24;100994.59;;;20.53
24586;BMP280;12743;52.262;6.172;2023-07-20T08:41:51;101045.38;;;20.11
24586;BMP280;12743;52.262;6.172;2023-07-20T08:44:20;101014.78;;;20.50
24586;BMP280;12743;52.262;6.172;2023-07-20T08:46:47;101017.59;;;21.02
24586;BMP280;12743;52.262;6.172;2023-07-20T08:49:16;101028.13;;;21.19
24586;BMP280;12743;52.262;6.172;2023-07-20T08:51:45;101017.34;;;20.71
24586;BMP280;12743;52.262;6.172;2023-07-20T08:54:13;101021.03;;;21.02
24586;BMP280;12743;52.262;6.172;2023-07-20T08:56:40;101022.28;;;20.76
24586;BMP280;12743;52.262;6.172;2023-07-20T08:59:08;101051.28;;;20.78
24586;BMP280;12743;52.262;6.172;2023-07-20T09:01:36;101041.88;;;20.49
24586;BMP280;12743;52.262;6.172;2023-07-20T09:04:05;101009.22;;;19.89
24586;BMP280;12743;52.262;6.172;2023-07-20T09:06:32;100979.75;;;20.41
24586;BMP280;12743;52.262;6.172;2023-07-20T09:09:01;101027.38;;;21.22
24586;BMP280;12743;52.262;6.172;2023-07-20T09:11:28;101022.69;;;21.33
24586;BMP280;12743;52.262;6.172;2023-07-20T09:14:06;101026.16;;;21.30
24586;BMP280;12743;52.262;6.172;2023-07-20T09:16:51;101068.00;;;20.89
24586;BMP280;12743;52.262;6.172;2023-07-20T09:19:18;101068.22;;;20.40
24586;BMP280;12743;52.262;6.172;2023-07-20T09:21:46;101040.25;;;21.34
24586;BMP280;12743;52.262;6.172;2023-07-20T09:24:14;101046.78;;;21.77
24586;BMP280;12743;52.262;6.172;2023-07-20T09:26:43;101054.00;;;21.80
24586;BMP280;12743;52.262;6.172;2023-07-20T09:29:11;101044.88;;;21.78
24586;BMP280;12743;52.262;6.172;2023-07-20T09:31:38;101069.47;;;21.59
24586;BMP280;12743;52.262;6.172;2023-07-20T09:34:07;101066.34;;;21.64
24586;BMP280;12743;52.262;6.172;2023-07-20T09:36:35;101057.06;;;21.35
24586;BMP280;12743;52.262;6.172;2023-07-20T09:39:05;101058.22;;;22.15
24586;BMP280;12743;52.262;6.172;2023-07-20T09:41:40;101070.19;;;22.04
24586;BMP280;12743;52.262;6.172;2023-07-20T09:44:15;101057.78;;;22.24
24586;BMP280;12743;52.262;6.172;2023-07-20T09:46:50;101070.00;;;22.55
24586;BMP280;12743;52.262;6.172;2023-07-20T09:49:20;101069.41;;;21.66
24586;BMP280;12743;52.262;6.172;2023-07-20T09:51:49;101068.56;;;22.17
24586;BMP280;12743;52.262;6.172;2023-07-20T09:54:17;101059.31;;;21.84
24586;BMP280;12743;52.262;6.172;2023-07-20T09:56:45;101048.03;;;21.15
24586;BMP280;12743;52.262;6.172;2023-07-20T09:59:12;101065.91;;;21.72
24586;BMP280;12743;52.262;6.172;2023-07-20T10:01:41;101080.50;;;22.05
24586;BMP280;12743;52.262;6.172;2023-07-20T10:04:08;101065.41;;;21.88
24586;BMP280;12743;52.262;6.172;2023-07-20T10:06:37;101065.53;;;22.45
24586;BMP280;12743;52.262;6.172;2023-07-20T10:09:07;101055.97;;;22.14
24586;BMP280;12743;52.262;6.172;2023-07-20T10:11:36;101074.72;;;23.00
24586;BMP280;12743;52.262;6.172;2023-07-20T10:14:06;101049.69;;;22.27
24586;BMP280;12743;52.262;6.172;2023-07-20T10:16:36;101076.09;;;22.59
24586;BMP280;12743;52.262;6.172;2023-07-20T10:19:18;101069.81;;;22.05
24586;BMP280;12743;52.262;6.172;2023-07-20T10:21:58;101075.22;;;22.35
24586;BMP280;12743;52.262;6.172;2023-07-20T10:24:31;101080.63;;;22.92
24586;BMP280;12743;52.262;6.172;2023-07-20T10:26:58;101083.69;;;23.17
24586;BMP280;12743;52.262;6.172;2023-07-20T10:29:25;101058.44;;;22.61
24586;BMP280;12743;52.262;6.172;2023-07-20T10:31:56;101087.28;;;23.07
24586;BMP280;12743;52.262;6.172;2023-07-20T10:34:23;101059.34;;;22.81
24586;BMP280;12743;52.262;6.172;2023-07-20T10:36:50;101076.06;;;23.16
24586;BMP280;12743;52.262;6.172;2023-07-20T10:39:25;101060.56;;;22.77
24586;BMP280;12743;52.262;6.172;2023-07-20T10:44:28;101079.91;;;23.84
24586;BMP280;12743;52.262;6.172;2023-07-20T10:47:17;101085.19;;;23.68
24586;BMP280;12743;52.262;6.172;2023-07-20T10:50:00;101068.69;;;23.46
24586;BMP280;12743;52.262;6.172;2023-07-20T10:52:36;101082.59;;;24.23
24586;BMP280;12743;52.262;6.172;2023-07-20T10:55:19;101078.44;;;24.02
24586;BMP280;12743;52.262;6.172;2023-07-20T11:00:36;101068.19;;;23.55
24586;BMP280;12743;52.262;6.172;2023-07-20T11:03:04;101072.63;;;23.15
24586;BMP280;12743;52.262;6.172;2023-07-20T11:05:35;101074.50;;;23.64
24586;BMP280;12743;52.262;6.172;2023-07-20T11:08:04;101077.13;;;24.10
24586;BMP280;12743;52.262;6.172;2023-07-20T11:10:32;101081.03;;;24.81
24586;BMP280;12743;52.262;6.172;2023-07-20T11:15:48;101078.94;;;23.74
24586;BMP280;12743;52.262;6.172;2023-07-20T11:18:27;101074.91;;;24.05
24586;BMP280;12743;52.262;6.172;2023-07-20T11:20:54;101074.22;;;23.59
24586;BMP280;12743;52.262;6.172;2023-07-20T11:23:21;101072.28;;;22.86
24586;BMP280;12743;52.262;6.172;2023-07-20T11:25:48;101024.81;;;22.60
24586;BMP280;12743;52.262;6.172;2023-07-20T11:28:16;101031.41;;;21.85
24586;BMP280;12743;52.262;6.172;2023-07-20T11:30:42;101004.19;;;22.27
24586;BMP280;12743;52.262;6.172;2023-07-20T11:33:09;101003.84;;;21.92
24586;BMP280;12743;52.262;6.172;2023-07-20T11:35:42;100988.97;;;21.91
24586;BMP280;12743;52.262;6.172;2023-07-20T11:38:09;101020.25;;;21.53
24586;BMP280;12743;52.262;6.172;2023-07-20T11:40:36;100974.66;;;21.26
24586;BMP280;12743;52.262;6.172;2023-07-20T11:43:02;100979.25;;;21.66
24586;BMP280;12743;52.262;6.172;2023-07-20T11:45:32;100969.81;;;21.58
24586;BMP280;12743;52.262;6.172;2023-07-20T11:47:59;100971.91;;;21.33
24586;BMP280;12743;52.262;6.172;2023-07-20T11:50:26;100955.78;;;20.96
24586;BMP280;12743;52.262;6.172;2023-07-20T11:52:53;100951.56;;;21.83
24586;BMP280;12743;52.262;6.172;2023-07-20T11:55:20;100965.75;;;21.80
24586;BMP280;12743;52.262;6.172;2023-07-20T11:58:06;100958.56;;;21.74
24586;BMP280;12743;52.262;6.172;2023-07-20T12:00:34;100962.47;;;22.30
24586;BMP280;12743;52.262;6.172;2023-07-20T12:03:05;100948.69;;;21.67
24586;BMP280;12743;52.262;6.172;2023-07-20T12:05:33;100950.63;;;22.01
24586;BMP280;12743;52.262;6.172;2023-07-20T12:08:21;100966.75;;;21.94
24586;BMP280;12743;52.262;6.172;2023-07-20T12:10:48;100976.19;;;22.88
24586;BMP280;12743;52.262;6.172;2023-07-20T12:13:15;100963.28;;;22.27
24586;BMP280;12743;52.262;6.172;2023-07-20T12:15:43;100961.81;;;21.88
24586;BMP280;12743;52.262;6.172;2023-07-20T12:18:09;100978.00;;;22.12
24586;BMP280;12743;52.262;6.172;2023-07-20T12:20:37;100962.53;;;22.26
24586;BMP280;12743;52.262;6.172;2023-07-20T12:23:08;100966.06;;;21.86
24586;BMP280;12743;52.262;6.172;2023-07-20T12:28:10;100953.41;;;21.16
24586;BMP280;12743;52.262;6.172;2023-07-20T12:30:38;100959.66;;;21.39
24586;BMP280;12743;52.262;6.172;2023-07-20T12:33:05;100960.41;;;21.80
24586;BMP280;12743;52.262;6.172;2023-07-20T12:35:32;100944.66;;;21.49
24586;BMP280;12743;52.262;6.172;2023-07-20T12:38:00;100960.50;;;21.70
24586;BMP280;12743;52.262;6.172;2023-07-20T12:40:27;100960.84;;;21.72
24586;BMP280;12743;52.262;6.172;2023-07-20T12:42:53;100969.56;;;21.83
24586;BMP280;12743;52.262;6.172;2023-07-20T12:45:20;100957.00;;;21.76
24586;BMP280;12743;52.262;6.172;2023-07-20T12:47:47;100958.25;;;22.02
24586;BMP280;12743;52.262;6.172;2023-07-20T12:50:14;100977.53;;;21.87
24586;BMP280;12743;52.262;6.172;2023-07-20T12:52:41;100966.41;;;21.54
24586;BMP280;12743;52.262;6.172;2023-07-20T12:55:08;100958.44;;;21.84
24586;BMP280;12743;52.262;6.172;2023-07-20T12:57:36;100956.78;;;21.98
24586;BMP280;12743;52.262;6.172;2023-07-20T13:00:04;100973.03;;;21.76
24586;BMP280;12743;52.262;6.172;2023-07-20T13:02:34;100965.63;;;21.95
24586;BMP280;12743;52.262;6.172;2023-07-20T13:05:02;100958.41;;;21.88
24586;BMP280;12743;52.262;6.172;2023-07-20T13:07:37;100971.25;;;22.00
24586;BMP280;12743;52.262;6.172;2023-07-20T13:10:08;100934.53;;;22.34
24586;BMP280;12743;52.262;6.172;2023-07-20T13:12:36;100962.72;;;23.38
24586;BMP280;12743;52.262;6.172;2023-07-20T13:15:04;100983.56;;;22.54
24586;BMP280;12743;52.262;6.172;2023-07-20T13:17:35;100944.56;;;21.97
24586;BMP280;12743;52.262;6.172;2023-07-20T13:20:03;100953.91;;;22.12
24586;BMP280;12743;52.262;6.172;2023-07-20T13:22:33;100957.81;;;22.07
24586;BMP280;12743;52.262;6.172;2023-07-20T13:25:01;100951.03;;;22.29
24586;BMP280;12743;52.262;6.172;2023-07-20T13:27:28;100946.97;;;22.18
24586;BMP280;12743;52.262;6.172;2023-07-20T13:29:59;100958.56;;;22.64
24586;BMP280;12743;52.262;6.172;2023-07-20T13:32:29;100945.97;;;22.88
24586;BMP280;12743;52.262;6.172;2023-07-20T13:35:00;100971.25;;;22.60
24586;BMP280;12743;52.262;6.172;2023-07-20T13:37:27;100971.88;;;22.94
24586;BMP280;12743;52.262;6.172;2023-07-20T13:39:54;100985.06;;;22.29
24586;BMP280;12743;52.262;6.172;2023-07-20T13:42:21;100960.28;;;21.95
24586;BMP280;12743;52.262;6.172;2023-07-20T13:44:48;100975.88;;;22.30
24586;BMP280;12743;52.262;6.172;2023-07-20T13:47:15;100968.97;;;22.32
24586;BMP280;12743;52.262;6.172;2023-07-20T13:49:44;100967.78;;;22.33
24586;BMP280;12743;52.262;6.172;2023-07-20T13:52:13;100970.50;;;22.86
24586;BMP280;12743;52.262;6.172;2023-07-20T13:54:43;100959.78;;;22.86
24586;BMP280;12743;52.262;6.172;2023-07-20T13:57:13;100972.16;;;22.50
24586;BMP280;12743;52.262;6.172;2023-07-20T13:59:41;100983.09;;;23.94
24586;BMP280;12743;52.262;6.172;2023-07-20T14:02:08;100970.84;;;24.49
24586;BMP280;12743;52.262;6.172;2023-07-20T14:04:37;100990.28;;;25.17
24586;BMP280;12743;52.262;6.172;2023-07-20T14:07:04;100971.84;;;23.83
24586;BMP280;12743;52.262;6.172;2023-07-20T14:09:31;100965.44;;;22.92
24586;BMP280;12743;52.262;6.172;2023-07-20T14:11:58;100969.25;;;23.37
24586;BMP280;12743;52.262;6.172;2023-07-20T14:14:28;100968.72;;;23.46
24586;BMP280;12743;52.262;6.172;2023-07-20T14:16:54;100968.38;;;22.48
24586;BMP280;12743;52.262;6.172;2023-07-20T14:19:22;100945.75;;;23.02
24586;BMP280;12743;52.262;6.172;2023-07-20T14:21:49;100957.00;;;22.67
24586;BMP280;12743;52.262;6.172;2023-07-20T14:24:16;100961.13;;;22.71
24586;BMP280;12743;52.262;6.172;2023-07-20T14:26:44;100942.31;;;22.52
24586;BMP280;12743;52.262;6.172;2023-07-20T14:29:11;100957.09;;;22.86
24586;BMP280;12743;52.262;6.172;2023-07-20T14:31:38;100947.34;;;23.19